High Island — WDG5547 — position and weather

sailwx.info

Track history (hours):
 
Tides and Currents Weather Stations Pressure Air Temp Water Temp Dewpoint Dewpoint Depression Visibility Wind Speed Wind Dir Waves Ship Positions

High Island

Owner: Higman Barge Lines, Inc, Orange, TX. More information available from US FCC via Universal Licensing System and Coast Guard Vessel Documentation Center.

Last reported at 2018-Feb-19 19:10 UTC. Time now 2018-Feb-19 20:09 UTC.
Position N 27°50' W 097°09'.

Length 24 m; draft 3 m.

Type: Towing. MMSI: 367547750.

Date/timePositionNaut miles runAvg speedWind from/ knotsBaromVisibWave heightAir tempDewpointWater temp
2018-Feb-19 19:10N 27°50' W 097°09'2 6.2
2018-Feb-19 18:56N 27°50' W 097°07'9 4.9
2018-Feb-19 16:59N 27°59' W 097°03'3 6.1
2018-Feb-19 16:30N 28°01' W 097°01'3 5.9
2018-Feb-19 15:59N 28°03' W 096°59'3 5.8
2018-Feb-19 15:30N 28°06' W 096°57'3 5.5
2018-Feb-19 14:59N 28°08' W 096°55'3 5.6
2018-Feb-19 14:30N 28°10' W 096°53'59 4.2
2018-Feb-19 00:33N 28°42' W 095°57'0 0.1
2018-Feb-19 00:29N 28°42' W 095°57'0 0.1
2018-Feb-18 23:59N 28°42' W 095°57'3 4.0
2018-Feb-18 23:18N 28°40' W 095°60'0 1.1
2018-Feb-18 22:58N 28°41' W 095°59'27 1.9
2018-Feb-18 09:01N 28°51' W 095°31'0 0.0
2018-Feb-18 08:56N 28°51' W 095°31'29 1.0
2018-Feb-17 02:13N 29°11' W 095°06'0 0.2
2018-Feb-17 01:55N 29°11' W 095°06'1 1.8
2018-Feb-17 01:30N 29°11' W 095°05'0 0.1
2018-Feb-17 01:00N 29°11' W 095°05'0 0.4
2018-Feb-17 00:28N 29°11' W 095°05'2 4.0
2018-Feb-17 00:01N 29°12' W 095°03'21 1.4
2018-Feb-16 08:42N 29°25' W 094°44'0 0.0
2018-Feb-16 08:30N 29°25' W 094°44'0 0.0
2018-Feb-16 08:00N 29°25' W 094°44'0 0.0
2018-Feb-16 07:20N 29°25' W 094°44'0 0.0
2018-Feb-16 07:00N 29°25' W 094°44'0 0.0
2018-Feb-16 06:29N 29°25' W 094°44'0 0.0
2018-Feb-16 05:57N 29°25' W 094°44'0 0.0
2018-Feb-16 05:29N 29°25' W 094°44'0 0.0
2018-Feb-16 04:58N 29°25' W 094°44'0 0.0
2018-Feb-16 04:27N 29°25' W 094°44'0 0.0
2018-Feb-16 03:52N 29°25' W 094°44'0 0.0
2018-Feb-16 03:19N 29°25' W 094°44'0 0.0
2018-Feb-16 02:50N 29°25' W 094°44'0 0.0
2018-Feb-16 02:30N 29°25' W 094°44'0 0.0
2018-Feb-16 01:59N 29°25' W 094°44'0 0.0
2018-Feb-16 01:16N 29°25' W 094°44'0 0.0
2018-Feb-16 00:58N 29°25' W 094°44'0 0.0
2018-Feb-16 00:27N 29°25' W 094°44'0 0.0
2018-Feb-16 00:00N 29°25' W 094°44'0 0.1
2018-Feb-15 23:17N 29°25' W 094°44'1 2.5
2018-Feb-15 23:00N 29°26' W 094°43'5 4.9
2018-Feb-15 22:03N 29°28' W 094°39'0 5.0
2018-Feb-15 21:59N 29°28' W 094°38'3 5.0
2018-Feb-15 21:28N 29°29' W 094°35'5 4.8
2018-Feb-15 20:26N 29°31' W 094°30'2 3.9
2018-Feb-15 19:55N 29°33' W 094°28'3 5.4
2018-Feb-15 19:21N 29°34' W 094°25'2 5.0
2018-Feb-15 18:59N 29°36' W 094°25'2 4.1
2018-Feb-15 18:30N 29°36' W 094°22'3 5.4
2018-Feb-15 18:00N 29°37' W 094°20'3 5.6
2018-Feb-15 17:30N 29°39' W 094°17'3 5.7
2018-Feb-15 17:00N 29°40' W 094°14'1 2.0
2018-Feb-15 16:30N 29°40' W 094°13'0 0.0
2018-Feb-15 16:00N 29°40' W 094°13'0 0.0
2018-Feb-15 15:30N 29°40' W 094°13'0 0.0
2018-Feb-15 15:01N 29°40' W 094°13'0 0.0
2018-Feb-15 14:30N 29°40' W 094°13'0 0.1
2018-Feb-15 13:57N 29°40' W 094°13'2 3.5
2018-Feb-15 13:30N 29°41' W 094°11'1 1.2
2018-Feb-15 12:53N 29°41' W 094°10'0 0.0
2018-Feb-15 12:26N 29°41' W 094°10'0 0.0
2018-Feb-15 12:00N 29°41' W 094°10'0 0.0
2018-Feb-15 11:30N 29°41' W 094°10'0 0.0
2018-Feb-15 10:58N 29°41' W 094°10'0 0.0
2018-Feb-15 10:24N 29°41' W 094°10'0 0.0
2018-Feb-15 10:00N 29°41' W 094°10'0 0.0
2018-Feb-15 09:30N 29°41' W 094°10'0 0.0
2018-Feb-15 08:59N 29°41' W 094°10'0 0.0
2018-Feb-15 08:25N 29°41' W 094°10'0 0.0
2018-Feb-15 07:55N 29°41' W 094°10'0 0.0
2018-Feb-15 07:30N 29°41' W 094°10'0 0.0
2018-Feb-15 06:39N 29°41' W 094°10'0 0.0
2018-Feb-15 05:59N 29°41' W 094°10'0 0.0
2018-Feb-15 05:12N 29°41' W 094°10'0 0.0
2018-Feb-15 04:54N 29°41' W 094°10'0 0.0
2018-Feb-15 04:28N 29°41' W 094°10'0 0.0
2018-Feb-15 03:53N 29°41' W 094°10'0 0.0
2018-Feb-15 03:30N 29°41' W 094°10'0 0.0
2018-Feb-15 02:55N 29°41' W 094°10'0 0.0
2018-Feb-15 01:26N 29°41' W 094°10'0 0.0
2018-Feb-15 01:00N 29°41' W 094°10'0 0.2
2018-Feb-15 00:29N 29°41' W 094°10'0 0.2
2018-Feb-15 00:00N 29°41' W 094°10'1 2.9
2018-Feb-14 23:30N 29°42' W 094°09'3 6.4
2018-Feb-14 23:00N 29°44' W 094°06'3 6.5
2018-Feb-14 22:31N 29°46' W 094°03'3 6.4
2018-Feb-14 22:00N 29°48' W 094°00'2 4.8
2018-Feb-14 21:31N 29°49' W 093°58'3 6.4
2018-Feb-14 21:00N 29°52' W 093°56'4 7.7
2018-Feb-14 20:30N 29°55' W 093°53'3 6.5
2018-Feb-14 20:00N 29°58' W 093°51'2 4.7
2018-Feb-14 19:30N 29°59' W 093°54'3 6.6
2018-Feb-14 19:00N 30°00' W 093°57'3 6.8
2018-Feb-14 18:30N 30°01' W 094°01'3 6.2
2018-Feb-14 18:00N 30°04' W 094°03'2 3.9
2018-Feb-14 17:30N 30°05' W 094°05'0 0.0
2018-Feb-14 17:00N 30°05' W 094°05'0 0.0
2018-Feb-14 16:30N 30°05' W 094°05'0 0.0
2018-Feb-14 16:00N 30°05' W 094°05'0 0.0
2018-Feb-14 15:30N 30°05' W 094°05'0 0.0
2018-Feb-14 15:00N 30°05' W 094°05'0 0.0
2018-Feb-14 14:30N 30°05' W 094°05'0 0.3
2018-Feb-14 14:00N 30°05' W 094°05'0 0.5
2018-Feb-14 13:30N 30°05' W 094°05'0 0.2
2018-Feb-14 13:00N 30°05' W 094°05'0 0.1
2018-Feb-14 12:31N 30°05' W 094°05'0 0.1
2018-Feb-14 12:00N 30°05' W 094°05'0 0.0
2018-Feb-14 11:30N 30°05' W 094°05'0 0.0
2018-Feb-14 11:00N 30°05' W 094°05'0 0.0
2018-Feb-14 10:26N 30°05' W 094°05'0 0.0
2018-Feb-14 09:59N 30°05' W 094°05'0 0.0
2018-Feb-14 09:30N 30°05' W 094°05'0 0.0
2018-Feb-14 08:54N 30°05' W 094°05'0 0.0
2018-Feb-14 08:29N 30°05' W 094°05'0 0.0
2018-Feb-14 08:00N 30°05' W 094°05'0 0.0
2018-Feb-14 07:30N 30°05' W 094°05'0 0.0
2018-Feb-14 07:00N 30°05' W 094°05'0 0.0
2018-Feb-14 06:30N 30°05' W 094°05'0 0.0
2018-Feb-14 05:58N 30°05' W 094°05'0 0.0
2018-Feb-14 05:30N 30°05' W 094°05'0 0.0
2018-Feb-14 05:00N 30°05' W 094°05'0 0.0
2018-Feb-14 04:28N 30°05' W 094°05'0 0.0
2018-Feb-14 04:00N 30°05' W 094°05'0 0.0
2018-Feb-14 03:30N 30°05' W 094°05'0 0.0
2018-Feb-14 03:00N 30°05' W 094°05'0 0.0
2018-Feb-14 02:29N 30°05' W 094°05'0 0.0
2018-Feb-14 02:00N 30°05' W 094°05'0 0.0
2018-Feb-14 01:29N 30°05' W 094°05'0 0.0
2018-Feb-14 01:00N 30°05' W 094°05'0 0.0
2018-Feb-14 00:29N 30°05' W 094°05'0 0.0
2018-Feb-13 23:54N 30°05' W 094°05'0 0.0
2018-Feb-13 23:30N 30°05' W 094°05'0 0.0
2018-Feb-13 23:00N 30°05' W 094°05'0 0.0
2018-Feb-13 22:29N 30°05' W 094°05'0 0.0
2018-Feb-13 22:00N 30°05' W 094°05'0 0.0
2018-Feb-13 21:29N 30°05' W 094°05'0 0.0
2018-Feb-13 21:00N 30°05' W 094°05'0 0.0
2018-Feb-13 20:29N 30°05' W 094°05'0 0.0
2018-Feb-13 19:59N 30°05' W 094°05'0 0.0
2018-Feb-13 19:29N 30°05' W 094°05'0 0.0
2018-Feb-13 19:00N 30°05' W 094°05'0 0.0
2018-Feb-13 18:21N 30°05' W 094°05'0 0.0
2018-Feb-13 17:51N 30°05' W 094°05'0 0.0
2018-Feb-13 17:26N 30°05' W 094°05'0 0.0
2018-Feb-13 16:58N 30°05' W 094°05'0 0.0
2018-Feb-13 16:25N 30°05' W 094°05'0 0.0
2018-Feb-13 16:00N 30°05' W 094°05'0 0.0
2018-Feb-13 15:30N 30°05' W 094°05'0 0.0
2018-Feb-13 15:00N 30°05' W 094°05'0 0.0
2018-Feb-13 14:30N 30°05' W 094°05'0 0.0
2018-Feb-13 14:00N 30°05' W 094°05'0 0.7
2018-Feb-13 13:30N 30°05' W 094°05'0 0.0
2018-Feb-13 13:00N 30°05' W 094°05'2 3.7
2018-Feb-13 12:30N 30°04' W 094°03'3 5.5
2018-Feb-13 12:01N 30°01' W 094°02'2 4.7
2018-Feb-13 11:30N 30°01' W 093°59'0 0.3
2018-Feb-13 11:00N 30°01' W 093°59'0 0.0
2018-Feb-13 10:31N 30°01' W 093°59'0 0.0
2018-Feb-13 10:00N 30°01' W 093°59'0 0.0
2018-Feb-13 09:30N 30°01' W 093°59'0 0.0
2018-Feb-13 09:00N 30°01' W 093°59'0 0.0
2018-Feb-13 08:30N 30°01' W 093°59'0 0.0
2018-Feb-13 08:00N 30°01' W 093°59'0 0.0
2018-Feb-13 07:30N 30°01' W 093°59'0 0.0
2018-Feb-13 07:00N 30°01' W 093°59'0 0.0
2018-Feb-13 06:30N 30°01' W 093°59'0 0.0
2018-Feb-13 06:00N 30°01' W 093°59'0 0.0
2018-Feb-13 05:31N 30°01' W 093°59'0 0.0
2018-Feb-13 05:00N 30°01' W 093°59'0 0.1
2018-Feb-13 04:30N 30°01' W 093°59'0 0.0
2018-Feb-13 04:00N 30°01' W 093°59'0 0.0
2018-Feb-13 03:30N 30°01' W 093°59'0 0.0
2018-Feb-13 03:00N 30°01' W 093°59'0 0.0
2018-Feb-13 02:30N 30°01' W 093°59'0 0.0
2018-Feb-13 02:00N 30°01' W 093°59'0 0.0
2018-Feb-13 01:30N 30°01' W 093°59'0 0.0
2018-Feb-13 00:59N 30°01' W 093°59'0 0.0
2018-Feb-13 00:30N 30°01' W 093°59'0 0.0
2018-Feb-13 00:00N 30°01' W 093°59'0 0.0
2018-Feb-12 23:30N 30°01' W 093°59'0 0.0
2018-Feb-12 23:00N 30°01' W 093°59'0 0.0
2018-Feb-12 22:30N 30°01' W 093°59'0 0.0
2018-Feb-12 22:00N 30°01' W 093°59'0 0.0
2018-Feb-12 21:31N 30°01' W 093°59'0 0.0
2018-Feb-12 21:00N 30°01' W 093°59'0 0.0
2018-Feb-12 20:30N 30°01' W 093°59'0 0.0
2018-Feb-12 20:00N 30°01' W 093°59'0 0.0
2018-Feb-12 19:30N 30°01' W 093°59'0 0.0
2018-Feb-12 19:01N 30°01' W 093°59'0 0.0
2018-Feb-12 18:30N 30°01' W 093°59'0 0.0
2018-Feb-12 18:00N 30°01' W 093°59'0 0.0
2018-Feb-12 17:31N 30°01' W 093°59'0 0.0
2018-Feb-12 17:00N 30°01' W 093°59'0 0.0
2018-Feb-12 16:30N 30°01' W 093°59'0 0.0
2018-Feb-12 16:00N 30°01' W 093°59'0 0.0
2018-Feb-12 15:30N 30°01' W 093°59'0 0.0
2018-Feb-12 15:00N 30°01' W 093°59'0 0.0
2018-Feb-12 14:30N 30°01' W 093°59'0 0.0
2018-Feb-12 14:00N 30°01' W 093°59'0 0.0
2018-Feb-12 13:30N 30°01' W 093°59'0 0.0
2018-Feb-12 13:01N 30°01' W 093°59'0 0.0
2018-Feb-12 12:30N 30°01' W 093°59'0 0.0
2018-Feb-12 12:00N 30°01' W 093°59'0 0.0
2018-Feb-12 11:30N 30°01' W 093°59'0 0.0
2018-Feb-12 11:01N 30°01' W 093°59'0 0.0
2018-Feb-12 10:30N 30°01' W 093°59'0 0.0
2018-Feb-12 10:00N 30°01' W 093°59'0 0.0
2018-Feb-12 09:30N 30°01' W 093°59'0 0.0
2018-Feb-12 09:00N 30°01' W 093°59'0 0.0
2018-Feb-12 08:30N 30°01' W 093°59'0 0.0
2018-Feb-12 08:00N 30°01' W 093°59'0 0.0
2018-Feb-12 07:30N 30°01' W 093°59'0 0.0
2018-Feb-12 07:00N 30°01' W 093°59'0 0.0
2018-Feb-12 06:30N 30°01' W 093°59'0 0.0
2018-Feb-12 06:00N 30°01' W 093°59'0 0.0
2018-Feb-12 05:30N 30°01' W 093°59'0 0.0
2018-Feb-12 05:00N 30°01' W 093°59'0 0.0
2018-Feb-12 04:30N 30°01' W 093°59'0 0.0
2018-Feb-12 04:00N 30°01' W 093°59'0 0.0
2018-Feb-12 03:30N 30°01' W 093°59'0 0.0
2018-Feb-12 03:00N 30°01' W 093°59'0 0.0
2018-Feb-12 02:30N 30°01' W 093°59'0 0.0
2018-Feb-12 02:00N 30°01' W 093°59'0 0.0
2018-Feb-12 01:30N 30°01' W 093°59'0 0.0
2018-Feb-12 01:00N 30°01' W 093°59'0 0.0
2018-Feb-12 00:30N 30°01' W 093°59'0 0.0
2018-Feb-12 00:00N 30°01' W 093°59'0 0.0
2018-Feb-11 23:30N 30°01' W 093°59'0 0.0
2018-Feb-11 23:00N 30°01' W 093°59'0 0.0
2018-Feb-11 22:30N 30°01' W 093°59'0 0.0
2018-Feb-11 22:01N 30°01' W 093°59'0 0.0
2018-Feb-11 21:30N 30°01' W 093°59'0 0.1
2018-Feb-11 21:01N 30°01' W 093°59'1 1.3
2018-Feb-11 20:26N 30°01' W 093°59'0 0.0
2018-Feb-11 20:00N 30°01' W 093°59'0 0.0
2018-Feb-11 19:30N 30°01' W 093°59'0 0.0
2018-Feb-11 19:00N 30°01' W 093°59'0 0.0
2018-Feb-11 18:30N 30°01' W 093°59'0 0.0
2018-Feb-11 18:00N 30°01' W 093°59'0 0.0
2018-Feb-11 17:30N 30°01' W 093°59'0 0.0
2018-Feb-11 17:00N 30°01' W 093°59'0 0.0
2018-Feb-11 16:30N 30°01' W 093°59'0 0.0
2018-Feb-11 16:01N 30°01' W 093°59'0 0.0
2018-Feb-11 15:30N 30°01' W 093°59'0 0.0
2018-Feb-11 15:00N 30°01' W 093°59'0 0.0
2018-Feb-11 14:30N 30°01' W 093°59'0 0.0
2018-Feb-11 13:58N 30°01' W 093°59'0 0.0
2018-Feb-11 13:31N 30°01' W 093°59'0 0.0
2018-Feb-11 12:59N 30°01' W 093°59'0 0.0
2018-Feb-11 12:30N 30°01' W 093°59'0 0.0
2018-Feb-11 12:00N 30°01' W 093°59'0 0.0
2018-Feb-11 11:30N 30°01' W 093°59'0 0.0
2018-Feb-11 11:00N 30°01' W 093°59'0 0.0
2018-Feb-11 10:30N 30°01' W 093°59'0 0.0
2018-Feb-11 10:00N 30°01' W 093°59'0 0.0
2018-Feb-11 09:30N 30°01' W 093°59'0 0.0
2018-Feb-11 09:00N 30°01' W 093°59'0 0.0
2018-Feb-11 08:30N 30°01' W 093°59'0 0.0
2018-Feb-11 08:00N 30°01' W 093°59'0 0.0
2018-Feb-11 07:30N 30°01' W 093°59'0 0.0
2018-Feb-11 07:00N 30°01' W 093°59'0 0.0
2018-Feb-11 06:30N 30°01' W 093°59'0 0.0
2018-Feb-11 06:00N 30°01' W 093°59'0 0.0
2018-Feb-11 05:30N 30°01' W 093°59'0 0.0
2018-Feb-11 05:00N 30°01' W 093°59'0 0.0
2018-Feb-11 04:30N 30°01' W 093°59'0 0.0
2018-Feb-11 04:00N 30°01' W 093°59'0 0.0
2018-Feb-11 03:30N 30°01' W 093°59'0 0.0
2018-Feb-11 03:00N 30°01' W 093°59'0 0.0
2018-Feb-11 02:30N 30°01' W 093°59'0 0.0
2018-Feb-11 02:00N 30°01' W 093°59'0 0.1
2018-Feb-11 01:30N 30°01' W 093°59'1 1.4
2018-Feb-11 01:00N 30°01' W 093°59'0 0.2
2018-Feb-11 00:30N 30°01' W 093°59'0 0.0
2018-Feb-11 00:00N 30°01' W 093°59'0 0.0
2018-Feb-10 23:30N 30°01' W 093°59'0 0.0
2018-Feb-10 23:00N 30°01' W 093°59'0 0.0
2018-Feb-10 22:30N 30°01' W 093°59'0 0.0
2018-Feb-10 22:01N 30°01' W 093°59'0 0.0
2018-Feb-10 21:30N 30°01' W 093°59'0 0.0
2018-Feb-10 21:00N 30°01' W 093°59'0 0.0
2018-Feb-10 20:31N 30°01' W 093°59'0 0.9
2018-Feb-10 20:00N 30°01' W 093°59'0 0.0
2018-Feb-10 19:30N 30°01' W 093°59'0 0.0
2018-Feb-10 19:00N 30°01' W 093°59'0 0.0
2018-Feb-10 18:30N 30°01' W 093°59'0 0.0
2018-Feb-10 18:01N 30°01' W 093°59'0 0.2
2018-Feb-10 17:30N 30°01' W 093°59'1 2.7
2018-Feb-10 17:00N 30°01' W 093°57'2 4.3
2018-Feb-10 16:30N 29°59' W 093°55'2 4.8
2018-Feb-10 16:00N 29°59' W 093°53'2 3.5
2018-Feb-10 15:30N 29°58' W 093°51'2 4.5
2018-Feb-10 15:01N 29°56' W 093°53'2 4.5
2018-Feb-10 14:30N 29°54' W 093°54'2 4.4
2018-Feb-10 14:00N 29°52' W 093°56'2 4.1
2018-Feb-10 13:30N 29°50' W 093°57'2 4.4
2018-Feb-10 13:00N 29°49' W 093°59'0 0.0
2018-Feb-10 12:30N 29°49' W 093°59'0 0.0
2018-Feb-10 12:00N 29°49' W 093°59'0 0.0
2018-Feb-10 11:30N 29°49' W 093°59'0 0.0
2018-Feb-10 11:00N 29°49' W 093°59'0 0.0
2018-Feb-10 10:30N 29°49' W 093°59'0 0.0
2018-Feb-10 10:00N 29°49' W 093°59'0 0.0
2018-Feb-10 09:30N 29°49' W 093°59'0 0.0
2018-Feb-10 09:00N 29°49' W 093°59'0 0.0
2018-Feb-10 08:30N 29°49' W 093°59'0 0.0
2018-Feb-10 08:00N 29°49' W 093°59'0 0.0
2018-Feb-10 07:30N 29°49' W 093°59'0 0.0
2018-Feb-10 07:00N 29°49' W 093°59'0 0.0
2018-Feb-10 06:30N 29°49' W 093°59'0 0.0
2018-Feb-10 06:00N 29°49' W 093°59'0 0.0
2018-Feb-10 05:30N 29°49' W 093°59'0 0.0
2018-Feb-10 05:00N 29°49' W 093°59'0 0.1
2018-Feb-10 04:30N 29°49' W 093°59'0 0.2
2018-Feb-10 04:00N 29°49' W 093°59'0 0.1
2018-Feb-10 03:30N 29°49' W 093°59'0 0.0
2018-Feb-10 03:00N 29°49' W 093°59'0 0.0
2018-Feb-10 02:30N 29°49' W 093°59'0 0.0
2018-Feb-10 02:00N 29°49' W 093°59'0 0.0
2018-Feb-10 01:30N 29°49' W 093°59'0 0.1
2018-Feb-10 01:00N 29°49' W 093°59'2 4.6
2018-Feb-10 00:30N 29°47' W 094°01'3 5.2
2018-Feb-10 00:00N 29°46' W 094°03'3 5.4
2018-Feb-09 23:30N 29°44' W 094°06'3 5.5
2018-Feb-09 23:00N 29°42' W 094°08'1 5.3
2018-Feb-09 22:45N 29°41' W 094°09'  
Track history (hours):
 
Tides and Currents Weather Stations Pressure Air Temp Water Temp Dewpoint Dewpoint Depression Visibility Wind Speed Wind Dir Waves Ship Positions

High Island

Owner: Higman Barge Lines, Inc, Orange, TX. More information available from US FCC via Universal Licensing System and Coast Guard Vessel Documentation Center.

Last reported at 2018-Feb-19 19:10 UTC. Time now 2018-Feb-19 20:09 UTC.
Position N 27°50' W 097°09'.

Length 24 m; draft 3 m.

Type: Towing. MMSI: 367547750.

Date/timePositionNaut miles runAvg speedWind from/ knotsBaromVisibWave heightAir tempDewpointWater temp
2018-Feb-19 19:10N 27°50' W 097°09'2 6.2
2018-Feb-19 18:56N 27°50' W 097°07'9 4.9
2018-Feb-19 16:59N 27°59' W 097°03'3 6.1
2018-Feb-19 16:30N 28°01' W 097°01'3 5.9
2018-Feb-19 15:59N 28°03' W 096°59'3 5.8
2018-Feb-19 15:30N 28°06' W 096°57'3 5.5
2018-Feb-19 14:59N 28°08' W 096°55'3 5.6
2018-Feb-19 14:30N 28°10' W 096°53'59 4.2
2018-Feb-19 00:33N 28°42' W 095°57'0 0.1
2018-Feb-19 00:29N 28°42' W 095°57'0 0.1
2018-Feb-18 23:59N 28°42' W 095°57'3 4.0
2018-Feb-18 23:18N 28°40' W 095°60'0 1.1
2018-Feb-18 22:58N 28°41' W 095°59'27 1.9
2018-Feb-18 09:01N 28°51' W 095°31'0 0.0
2018-Feb-18 08:56N 28°51' W 095°31'29 1.0
2018-Feb-17 02:13N 29°11' W 095°06'0 0.2
2018-Feb-17 01:55N 29°11' W 095°06'1 1.8
2018-Feb-17 01:30N 29°11' W 095°05'0 0.1
2018-Feb-17 01:00N 29°11' W 095°05'0 0.4
2018-Feb-17 00:28N 29°11' W 095°05'2 4.0
2018-Feb-17 00:01N 29°12' W 095°03'21 1.4
2018-Feb-16 08:42N 29°25' W 094°44'0 0.0
2018-Feb-16 08:30N 29°25' W 094°44'0 0.0
2018-Feb-16 08:00N 29°25' W 094°44'0 0.0
2018-Feb-16 07:20N 29°25' W 094°44'0 0.0
2018-Feb-16 07:00N 29°25' W 094°44'0 0.0
2018-Feb-16 06:29N 29°25' W 094°44'0 0.0
2018-Feb-16 05:57N 29°25' W 094°44'0 0.0
2018-Feb-16 05:29N 29°25' W 094°44'0 0.0
2018-Feb-16 04:58N 29°25' W 094°44'0 0.0
2018-Feb-16 04:27N 29°25' W 094°44'0 0.0
2018-Feb-16 03:52N 29°25' W 094°44'0 0.0
2018-Feb-16 03:19N 29°25' W 094°44'0 0.0
2018-Feb-16 02:50N 29°25' W 094°44'0 0.0
2018-Feb-16 02:30N 29°25' W 094°44'0 0.0
2018-Feb-16 01:59N 29°25' W 094°44'0 0.0
2018-Feb-16 01:16N 29°25' W 094°44'0 0.0
2018-Feb-16 00:58N 29°25' W 094°44'0 0.0
2018-Feb-16 00:27N 29°25' W 094°44'0 0.0
2018-Feb-16 00:00N 29°25' W 094°44'0 0.1
2018-Feb-15 23:17N 29°25' W 094°44'1 2.5
2018-Feb-15 23:00N 29°26' W 094°43'5 4.9
2018-Feb-15 22:03N 29°28' W 094°39'0 5.0
2018-Feb-15 21:59N 29°28' W 094°38'3 5.0
2018-Feb-15 21:28N 29°29' W 094°35'5 4.8
2018-Feb-15 20:26N 29°31' W 094°30'2 3.9
2018-Feb-15 19:55N 29°33' W 094°28'3 5.4
2018-Feb-15 19:21N 29°34' W 094°25'2 5.0
2018-Feb-15 18:59N 29°36' W 094°25'2 4.1
2018-Feb-15 18:30N 29°36' W 094°22'3 5.4
2018-Feb-15 18:00N 29°37' W 094°20'3 5.6
2018-Feb-15 17:30N 29°39' W 094°17'3 5.7
2018-Feb-15 17:00N 29°40' W 094°14'1 2.0
2018-Feb-15 16:30N 29°40' W 094°13'0 0.0
2018-Feb-15 16:00N 29°40' W 094°13'0 0.0
2018-Feb-15 15:30N 29°40' W 094°13'0 0.0
2018-Feb-15 15:01N 29°40' W 094°13'0 0.0
2018-Feb-15 14:30N 29°40' W 094°13'0 0.1
2018-Feb-15 13:57N 29°40' W 094°13'2 3.5
2018-Feb-15 13:30N 29°41' W 094°11'1 1.2
2018-Feb-15 12:53N 29°41' W 094°10'0 0.0
2018-Feb-15 12:26N 29°41' W 094°10'0 0.0
2018-Feb-15 12:00N 29°41' W 094°10'0 0.0
2018-Feb-15 11:30N 29°41' W 094°10'0 0.0
2018-Feb-15 10:58N 29°41' W 094°10'0 0.0
2018-Feb-15 10:24N 29°41' W 094°10'0 0.0
2018-Feb-15 10:00N 29°41' W 094°10'0 0.0
2018-Feb-15 09:30N 29°41' W 094°10'0 0.0
2018-Feb-15 08:59N 29°41' W 094°10'0 0.0
2018-Feb-15 08:25N 29°41' W 094°10'0 0.0
2018-Feb-15 07:55N 29°41' W 094°10'0 0.0
2018-Feb-15 07:30N 29°41' W 094°10'0 0.0
2018-Feb-15 06:39N 29°41' W 094°10'0 0.0
2018-Feb-15 05:59N 29°41' W 094°10'0 0.0
2018-Feb-15 05:12N 29°41' W 094°10'0 0.0
2018-Feb-15 04:54N 29°41' W 094°10'0 0.0
2018-Feb-15 04:28N 29°41' W 094°10'0 0.0
2018-Feb-15 03:53N 29°41' W 094°10'0 0.0
2018-Feb-15 03:30N 29°41' W 094°10'0 0.0
2018-Feb-15 02:55N 29°41' W 094°10'0 0.0
2018-Feb-15 01:26N 29°41' W 094°10'0 0.0
2018-Feb-15 01:00N 29°41' W 094°10'0 0.2
2018-Feb-15 00:29N 29°41' W 094°10'0 0.2
2018-Feb-15 00:00N 29°41' W 094°10'1 2.9
2018-Feb-14 23:30N 29°42' W 094°09'3 6.4
2018-Feb-14 23:00N 29°44' W 094°06'3 6.5
2018-Feb-14 22:31N 29°46' W 094°03'3 6.4
2018-Feb-14 22:00N 29°48' W 094°00'2 4.8
2018-Feb-14 21:31N 29°49' W 093°58'3 6.4
2018-Feb-14 21:00N 29°52' W 093°56'4 7.7
2018-Feb-14 20:30N 29°55' W 093°53'3 6.5
2018-Feb-14 20:00N 29°58' W 093°51'2 4.7
2018-Feb-14 19:30N 29°59' W 093°54'3 6.6
2018-Feb-14 19:00N 30°00' W 093°57'3 6.8
2018-Feb-14 18:30N 30°01' W 094°01'3 6.2
2018-Feb-14 18:00N 30°04' W 094°03'2 3.9
2018-Feb-14 17:30N 30°05' W 094°05'0 0.0
2018-Feb-14 17:00N 30°05' W 094°05'0 0.0
2018-Feb-14 16:30N 30°05' W 094°05'0 0.0
2018-Feb-14 16:00N 30°05' W 094°05'0 0.0
2018-Feb-14 15:30N 30°05' W 094°05'0 0.0
2018-Feb-14 15:00N 30°05' W 094°05'0 0.0
2018-Feb-14 14:30N 30°05' W 094°05'0 0.3
2018-Feb-14 14:00N 30°05' W 094°05'0 0.5
2018-Feb-14 13:30N 30°05' W 094°05'0 0.2
2018-Feb-14 13:00N 30°05' W 094°05'0 0.1
2018-Feb-14 12:31N 30°05' W 094°05'0 0.1
2018-Feb-14 12:00N 30°05' W 094°05'0 0.0
2018-Feb-14 11:30N 30°05' W 094°05'0 0.0
2018-Feb-14 11:00N 30°05' W 094°05'0 0.0
2018-Feb-14 10:26N 30°05' W 094°05'0 0.0
2018-Feb-14 09:59N 30°05' W 094°05'0 0.0
2018-Feb-14 09:30N 30°05' W 094°05'0 0.0
2018-Feb-14 08:54N 30°05' W 094°05'0 0.0
2018-Feb-14 08:29N 30°05' W 094°05'0 0.0
2018-Feb-14 08:00N 30°05' W 094°05'0 0.0
2018-Feb-14 07:30N 30°05' W 094°05'0 0.0
2018-Feb-14 07:00N 30°05' W 094°05'0 0.0
2018-Feb-14 06:30N 30°05' W 094°05'0 0.0
2018-Feb-14 05:58N 30°05' W 094°05'0 0.0
2018-Feb-14 05:30N 30°05' W 094°05'0 0.0
2018-Feb-14 05:00N 30°05' W 094°05'0 0.0
2018-Feb-14 04:28N 30°05' W 094°05'0 0.0
2018-Feb-14 04:00N 30°05' W 094°05'0 0.0
2018-Feb-14 03:30N 30°05' W 094°05'0 0.0
2018-Feb-14 03:00N 30°05' W 094°05'0 0.0
2018-Feb-14 02:29N 30°05' W 094°05'0 0.0
2018-Feb-14 02:00N 30°05' W 094°05'0 0.0
2018-Feb-14 01:29N 30°05' W 094°05'0 0.0
2018-Feb-14 01:00N 30°05' W 094°05'0 0.0
2018-Feb-14 00:29N 30°05' W 094°05'0 0.0
2018-Feb-13 23:54N 30°05' W 094°05'0 0.0
2018-Feb-13 23:30N 30°05' W 094°05'0 0.0
2018-Feb-13 23:00N 30°05' W 094°05'0 0.0
2018-Feb-13 22:29N 30°05' W 094°05'0 0.0
2018-Feb-13 22:00N 30°05' W 094°05'0 0.0
2018-Feb-13 21:29N 30°05' W 094°05'0 0.0
2018-Feb-13 21:00N 30°05' W 094°05'0 0.0
2018-Feb-13 20:29N 30°05' W 094°05'0 0.0
2018-Feb-13 19:59N 30°05' W 094°05'0 0.0
2018-Feb-13 19:29N 30°05' W 094°05'0 0.0
2018-Feb-13 19:00N 30°05' W 094°05'0 0.0
2018-Feb-13 18:21N 30°05' W 094°05'0 0.0
2018-Feb-13 17:51N 30°05' W 094°05'0 0.0
2018-Feb-13 17:26N 30°05' W 094°05'0 0.0
2018-Feb-13 16:58N 30°05' W 094°05'0 0.0
2018-Feb-13 16:25N 30°05' W 094°05'0 0.0
2018-Feb-13 16:00N 30°05' W 094°05'0 0.0
2018-Feb-13 15:30N 30°05' W 094°05'0 0.0
2018-Feb-13 15:00N 30°05' W 094°05'0 0.0
2018-Feb-13 14:30N 30°05' W 094°05'0 0.0
2018-Feb-13 14:00N 30°05' W 094°05'0 0.7
2018-Feb-13 13:30N 30°05' W 094°05'0 0.0
2018-Feb-13 13:00N 30°05' W 094°05'2 3.7
2018-Feb-13 12:30N 30°04' W 094°03'3 5.5
2018-Feb-13 12:01N 30°01' W 094°02'2 4.7
2018-Feb-13 11:30N 30°01' W 093°59'0 0.3
2018-Feb-13 11:00N 30°01' W 093°59'0 0.0
2018-Feb-13 10:31N 30°01' W 093°59'0 0.0
2018-Feb-13 10:00N 30°01' W 093°59'0 0.0
2018-Feb-13 09:30N 30°01' W 093°59'0 0.0
2018-Feb-13 09:00N 30°01' W 093°59'0 0.0
2018-Feb-13 08:30N 30°01' W 093°59'0 0.0
2018-Feb-13 08:00N 30°01' W 093°59'0 0.0
2018-Feb-13 07:30N 30°01' W 093°59'0 0.0
2018-Feb-13 07:00N 30°01' W 093°59'0 0.0
2018-Feb-13 06:30N 30°01' W 093°59'0 0.0
2018-Feb-13 06:00N 30°01' W 093°59'0 0.0
2018-Feb-13 05:31N 30°01' W 093°59'0 0.0
2018-Feb-13 05:00N 30°01' W 093°59'0 0.1
2018-Feb-13 04:30N 30°01' W 093°59'0 0.0
2018-Feb-13 04:00N 30°01' W 093°59'0 0.0
2018-Feb-13 03:30N 30°01' W 093°59'0 0.0
2018-Feb-13 03:00N 30°01' W 093°59'0 0.0
2018-Feb-13 02:30N 30°01' W 093°59'0 0.0
2018-Feb-13 02:00N 30°01' W 093°59'0 0.0
2018-Feb-13 01:30N 30°01' W 093°59'0 0.0
2018-Feb-13 00:59N 30°01' W 093°59'0 0.0
2018-Feb-13 00:30N 30°01' W 093°59'0 0.0
2018-Feb-13 00:00N 30°01' W 093°59'0 0.0
2018-Feb-12 23:30N 30°01' W 093°59'0 0.0
2018-Feb-12 23:00N 30°01' W 093°59'0 0.0
2018-Feb-12 22:30N 30°01' W 093°59'0 0.0
2018-Feb-12 22:00N 30°01' W 093°59'0 0.0
2018-Feb-12 21:31N 30°01' W 093°59'0 0.0
2018-Feb-12 21:00N 30°01' W 093°59'0 0.0
2018-Feb-12 20:30N 30°01' W 093°59'0 0.0
2018-Feb-12 20:00N 30°01' W 093°59'0 0.0
2018-Feb-12 19:30N 30°01' W 093°59'0 0.0
2018-Feb-12 19:01N 30°01' W 093°59'0 0.0
2018-Feb-12 18:30N 30°01' W 093°59'0 0.0
2018-Feb-12 18:00N 30°01' W 093°59'0 0.0
2018-Feb-12 17:31N 30°01' W 093°59'0 0.0
2018-Feb-12 17:00N 30°01' W 093°59'0 0.0
2018-Feb-12 16:30N 30°01' W 093°59'0 0.0
2018-Feb-12 16:00N 30°01' W 093°59'0 0.0
2018-Feb-12 15:30N 30°01' W 093°59'0 0.0
2018-Feb-12 15:00N 30°01' W 093°59'0 0.0
2018-Feb-12 14:30N 30°01' W 093°59'0 0.0
2018-Feb-12 14:00N 30°01' W 093°59'0 0.0
2018-Feb-12 13:30N 30°01' W 093°59'0 0.0
2018-Feb-12 13:01N 30°01' W 093°59'0 0.0
2018-Feb-12 12:30N 30°01' W 093°59'0 0.0
2018-Feb-12 12:00N 30°01' W 093°59'0 0.0
2018-Feb-12 11:30N 30°01' W 093°59'0 0.0
2018-Feb-12 11:01N 30°01' W 093°59'0 0.0
2018-Feb-12 10:30N 30°01' W 093°59'0 0.0
2018-Feb-12 10:00N 30°01' W 093°59'0 0.0
2018-Feb-12 09:30N 30°01' W 093°59'0 0.0
2018-Feb-12 09:00N 30°01' W 093°59'0 0.0
2018-Feb-12 08:30N 30°01' W 093°59'0 0.0
2018-Feb-12 08:00N 30°01' W 093°59'0 0.0
2018-Feb-12 07:30N 30°01' W 093°59'0 0.0
2018-Feb-12 07:00N 30°01' W 093°59'0 0.0
2018-Feb-12 06:30N 30°01' W 093°59'0 0.0
2018-Feb-12 06:00N 30°01' W 093°59'0 0.0
2018-Feb-12 05:30N 30°01' W 093°59'0 0.0
2018-Feb-12 05:00N 30°01' W 093°59'0 0.0
2018-Feb-12 04:30N 30°01' W 093°59'0 0.0
2018-Feb-12 04:00N 30°01' W 093°59'0 0.0
2018-Feb-12 03:30N 30°01' W 093°59'0 0.0
2018-Feb-12 03:00N 30°01' W 093°59'0 0.0
2018-Feb-12 02:30N 30°01' W 093°59'0 0.0
2018-Feb-12 02:00N 30°01' W 093°59'0 0.0
2018-Feb-12 01:30N 30°01' W 093°59'0 0.0
2018-Feb-12 01:00N 30°01' W 093°59'0 0.0
2018-Feb-12 00:30N 30°01' W 093°59'0 0.0
2018-Feb-12 00:00N 30°01' W 093°59'0 0.0
2018-Feb-11 23:30N 30°01' W 093°59'0 0.0
2018-Feb-11 23:00N 30°01' W 093°59'0 0.0
2018-Feb-11 22:30N 30°01' W 093°59'0 0.0
2018-Feb-11 22:01N 30°01' W 093°59'0 0.0
2018-Feb-11 21:30N 30°01' W 093°59'0 0.1
2018-Feb-11 21:01N 30°01' W 093°59'1 1.3
2018-Feb-11 20:26N 30°01' W 093°59'0 0.0
2018-Feb-11 20:00N 30°01' W 093°59'0 0.0
2018-Feb-11 19:30N 30°01' W 093°59'0 0.0
2018-Feb-11 19:00N 30°01' W 093°59'0 0.0
2018-Feb-11 18:30N 30°01' W 093°59'0 0.0
2018-Feb-11 18:00N 30°01' W 093°59'0 0.0
2018-Feb-11 17:30N 30°01' W 093°59'0 0.0
2018-Feb-11 17:00N 30°01' W 093°59'0 0.0
2018-Feb-11 16:30N 30°01' W 093°59'0 0.0
2018-Feb-11 16:01N 30°01' W 093°59'0 0.0
2018-Feb-11 15:30N 30°01' W 093°59'0 0.0
2018-Feb-11 15:00N 30°01' W 093°59'0 0.0
2018-Feb-11 14:30N 30°01' W 093°59'0 0.0
2018-Feb-11 13:58N 30°01' W 093°59'0 0.0
2018-Feb-11 13:31N 30°01' W 093°59'0 0.0
2018-Feb-11 12:59N 30°01' W 093°59'0 0.0
2018-Feb-11 12:30N 30°01' W 093°59'0 0.0
2018-Feb-11 12:00N 30°01' W 093°59'0 0.0
2018-Feb-11 11:30N 30°01' W 093°59'0 0.0
2018-Feb-11 11:00N 30°01' W 093°59'0 0.0
2018-Feb-11 10:30N 30°01' W 093°59'0 0.0
2018-Feb-11 10:00N 30°01' W 093°59'0 0.0
2018-Feb-11 09:30N 30°01' W 093°59'0 0.0
2018-Feb-11 09:00N 30°01' W 093°59'0 0.0
2018-Feb-11 08:30N 30°01' W 093°59'0 0.0
2018-Feb-11 08:00N 30°01' W 093°59'0 0.0
2018-Feb-11 07:30N 30°01' W 093°59'0 0.0
2018-Feb-11 07:00N 30°01' W 093°59'0 0.0
2018-Feb-11 06:30N 30°01' W 093°59'0 0.0
2018-Feb-11 06:00N 30°01' W 093°59'0 0.0
2018-Feb-11 05:30N 30°01' W 093°59'0 0.0
2018-Feb-11 05:00N 30°01' W 093°59'0 0.0
2018-Feb-11 04:30N 30°01' W 093°59'0 0.0
2018-Feb-11 04:00N 30°01' W 093°59'0 0.0
2018-Feb-11 03:30N 30°01' W 093°59'0 0.0
2018-Feb-11 03:00N 30°01' W 093°59'0 0.0
2018-Feb-11 02:30N 30°01' W 093°59'0 0.0
2018-Feb-11 02:00N 30°01' W 093°59'0 0.1
2018-Feb-11 01:30N 30°01' W 093°59'1 1.4
2018-Feb-11 01:00N 30°01' W 093°59'0 0.2
2018-Feb-11 00:30N 30°01' W 093°59'0 0.0
2018-Feb-11 00:00N 30°01' W 093°59'0 0.0
2018-Feb-10 23:30N 30°01' W 093°59'0 0.0
2018-Feb-10 23:00N 30°01' W 093°59'0 0.0
2018-Feb-10 22:30N 30°01' W 093°59'0 0.0
2018-Feb-10 22:01N 30°01' W 093°59'0 0.0
2018-Feb-10 21:30N 30°01' W 093°59'0 0.0
2018-Feb-10 21:00N 30°01' W 093°59'0 0.0
2018-Feb-10 20:31N 30°01' W 093°59'0 0.9
2018-Feb-10 20:00N 30°01' W 093°59'0 0.0
2018-Feb-10 19:30N 30°01' W 093°59'0 0.0
2018-Feb-10 19:00N 30°01' W 093°59'0 0.0
2018-Feb-10 18:30N 30°01' W 093°59'0 0.0
2018-Feb-10 18:01N 30°01' W 093°59'0 0.2
2018-Feb-10 17:30N 30°01' W 093°59'1 2.7
2018-Feb-10 17:00N 30°01' W 093°57'2 4.3
2018-Feb-10 16:30N 29°59' W 093°55'2 4.8
2018-Feb-10 16:00N 29°59' W 093°53'2 3.5
2018-Feb-10 15:30N 29°58' W 093°51'2 4.5
2018-Feb-10 15:01N 29°56' W 093°53'2 4.5
2018-Feb-10 14:30N 29°54' W 093°54'2 4.4
2018-Feb-10 14:00N 29°52' W 093°56'2 4.1
2018-Feb-10 13:30N 29°50' W 093°57'2 4.4
2018-Feb-10 13:00N 29°49' W 093°59'0 0.0
2018-Feb-10 12:30N 29°49' W 093°59'0 0.0
2018-Feb-10 12:00N 29°49' W 093°59'0 0.0
2018-Feb-10 11:30N 29°49' W 093°59'0 0.0
2018-Feb-10 11:00N 29°49' W 093°59'0 0.0
2018-Feb-10 10:30N 29°49' W 093°59'0 0.0
2018-Feb-10 10:00N 29°49' W 093°59'0 0.0
2018-Feb-10 09:30N 29°49' W 093°59'0 0.0
2018-Feb-10 09:00N 29°49' W 093°59'0 0.0
2018-Feb-10 08:30N 29°49' W 093°59'0 0.0
2018-Feb-10 08:00N 29°49' W 093°59'0 0.0
2018-Feb-10 07:30N 29°49' W 093°59'0 0.0
2018-Feb-10 07:00N 29°49' W 093°59'0 0.0
2018-Feb-10 06:30N 29°49' W 093°59'0 0.0
2018-Feb-10 06:00N 29°49' W 093°59'0 0.0
2018-Feb-10 05:30N 29°49' W 093°59'0 0.0
2018-Feb-10 05:00N 29°49' W 093°59'0 0.1
2018-Feb-10 04:30N 29°49' W 093°59'0 0.2
2018-Feb-10 04:00N 29°49' W 093°59'0 0.1
2018-Feb-10 03:30N 29°49' W 093°59'0 0.0
2018-Feb-10 03:00N 29°49' W 093°59'0 0.0
2018-Feb-10 02:30N 29°49' W 093°59'0 0.0
2018-Feb-10 02:00N 29°49' W 093°59'0 0.0
2018-Feb-10 01:30N 29°49' W 093°59'0 0.1
2018-Feb-10 01:00N 29°49' W 093°59'2 4.6
2018-Feb-10 00:30N 29°47' W 094°01'3 5.2
2018-Feb-10 00:00N 29°46' W 094°03'3 5.4
2018-Feb-09 23:30N 29°44' W 094°06'3 5.5
2018-Feb-09 23:00N 29°42' W 094°08'1 5.3
2018-Feb-09 22:45N 29°41' W 094°09'  

Dump ship's entire track history